Time;durP1;ratioP1;P1;durP2;ratioP2;P2;SDS_P1;SDS_P2;PMS_P1;PMS_P2;Temp;Humidity;BMP_temperature;BMP_pressure;BME280_temperature;BME280_humidity;BME280_pressure;Samples;Min_cycle;Max_cycle;Signal;HPM_P1;HPM_P2
2022/12/06 00:01:04;;;;;;;36.60;20.95;;;7.20;99.90;;;;;;4988370;28;20269;-81
2022/12/06 00:03:32;;;;;;;30.20;19.35;;;7.30;99.90;;;;;;4985268;28;20203;-82
2022/12/06 00:06:06;;;;;;;28.80;18.63;;;7.40;99.90;;;;;;4990241;28;20318;-82
2022/12/06 00:08:34;;;;;;;27.75;18.55;;;7.40;99.90;;;;;;4987422;28;20202;-82
2022/12/06 00:11:16;;;;;;;24.35;16.33;;;7.40;99.90;;;;;;4988441;28;20210;-81
2022/12/06 00:13:43;;;;;;;27.65;16.88;;;7.30;99.90;;;;;;4996596;28;20554;-80
2022/12/06 00:16:14;;;;;;;24.92;17.17;;;7.20;99.90;;;;;;4989442;28;20238;-81
2022/12/06 00:18:43;;;;;;;25.25;15.75;;;7.40;99.90;;;;;;5007798;28;20277;-81
2022/12/06 00:21:13;;;;;;;28.42;18.58;;;7.60;99.90;;;;;;4989731;28;20290;-81
2022/12/06 00:23:47;;;;;;;19.85;15.23;;;7.80;99.90;;;;;;5002985;28;20405;-81
2022/12/06 00:26:16;;;;;;;23.38;16.17;;;7.40;99.90;;;;;;4988345;28;20218;-81
2022/12/06 00:28:43;;;;;;;23.15;15.88;;;7.60;99.90;;;;;;4983177;28;20210;-83
2022/12/06 00:31:15;;;;;;;23.35;16.00;;;7.60;99.90;;;;;;4988599;28;20212;-80
2022/12/06 00:33:43;;;;;;;24.92;17.00;;;7.70;99.90;;;;;;4974702;28;20211;-81
2022/12/06 00:36:13;;;;;;;25.90;16.52;;;7.80;99.90;;;;;;4989842;28;20246;-83
2022/12/06 00:38:41;;;;;;;30.02;18.42;;;7.90;99.90;;;;;;4985722;28;20187;-82
2022/12/06 00:41:16;;;;;;;24.33;16.05;;;7.70;99.90;;;;;;4993379;28;20213;-81
2022/12/06 00:43:44;;;;;;;30.35;16.88;;;7.50;99.90;;;;;;4995037;28;20195;-82
2022/12/06 00:46:16;;;;;;;25.60;16.92;;;7.60;99.90;;;;;;4987872;28;20218;-81
2022/12/06 00:48:44;;;;;;;23.88;16.48;;;7.50;99.90;;;;;;4990471;28;20213;-81
2022/12/06 00:51:12;;;;;;;25.02;15.80;;;7.70;99.90;;;;;;4986598;28;20279;-82
2022/12/06 00:53:40;;;;;;;22.95;15.25;;;7.60;99.90;;;;;;4991917;28;20266;-81
2022/12/06 00:56:08;;;;;;;24.02;15.32;;;7.40;99.90;;;;;;4987533;28;20222;-82
2022/12/06 00:58:35;;;;;;;27.00;16.58;;;7.30;99.90;;;;;;4991414;28;20448;-80
2022/12/06 01:01:32;;;;;;;22.45;15.77;;;7.20;99.90;;;;;;4990865;28;20280;-81
2022/12/06 01:04:02;;;;;;;24.13;15.73;;;7.10;99.90;;;;;;4987697;28;20203;-81
2022/12/06 01:06:32;;;;;;;19.00;14.55;;;7.20;99.90;;;;;;4989390;28;20218;-80
2022/12/06 01:09:03;;;;;;;23.20;15.65;;;7.20;99.90;;;;;;4983733;28;20207;-80
2022/12/06 01:11:31;;;;;;;27.13;17.90;;;7.40;99.90;;;;;;4979999;28;20246;-81
2022/12/06 01:13:57;;;;;;;28.20;16.48;;;6.80;99.90;;;;;;4988071;28;20219;-80
2022/12/06 01:16:27;;;;;;;22.27;14.00;;;6.50;99.90;;;;;;4988490;28;20230;-81
2022/12/06 01:19:02;;;;;;;24.13;15.30;;;6.70;99.90;;;;;;4991264;28;20273;-82
2022/12/06 01:21:30;;;;;;;27.90;16.55;;;6.80;99.90;;;;;;4982877;28;20245;-81
2022/12/06 01:23:57;;;;;;;18.10;12.00;;;7.00;99.90;;;;;;4977545;28;20254;-82
2022/12/06 01:26:32;;;;;;;25.40;14.23;;;7.20;99.90;;;;;;4981951;28;20405;-81
2022/12/06 01:28:59;;;;;;;21.90;14.88;;;7.40;99.90;;;;;;4980371;28;20203;-80
2022/12/06 01:31:27;;;;;;;24.45;15.05;;;7.60;99.90;;;;;;4980634;28;20191;-79
2022/12/06 01:34:04;;;;;;;22.65;14.68;;;7.50;99.90;;;;;;4981216;28;20268;-81
2022/12/06 01:36:31;;;;;;;32.15;16.83;;;7.70;99.90;;;;;;4986628;28;20226;-80
2022/12/06 01:38:59;;;;;;;23.98;15.88;;;7.70;99.90;;;;;;4979021;28;20270;-80
2022/12/06 01:41:27;;;;;;;22.05;14.65;;;7.80;99.90;;;;;;4987245;28;20207;-80
2022/12/06 01:43:55;;;;;;;22.27;14.52;;;7.90;99.90;;;;;;4984655;28;20210;-81
2022/12/06 01:46:42;;;;;;;25.38;15.35;;;7.80;99.90;;;;;;4972418;28;20216;-82
2022/12/06 01:49:12;;;;;;;20.75;14.07;;;7.80;99.90;;;;;;4984082;28;20199;-82
2022/12/06 01:51:50;;;;;;;24.70;15.60;;;7.80;99.90;;;;;;4994076;28;20253;-82
2022/12/06 01:54:19;;;;;;;22.85;13.82;;;7.70;99.90;;;;;;4995053;28;20513;-81
2022/12/06 01:56:47;;;;;;;25.98;13.65;;;7.80;99.90;;;;;;4992031;28;20222;-81
2022/12/06 01:59:15;;;;;;;24.60;16.33;;;7.60;99.90;;;;;;4997333;28;20225;-81
2022/12/06 02:01:42;;;;;;;25.63;15.75;;;7.70;99.90;;;;;;4993068;28;20249;-81
2022/12/06 02:04:09;;;;;;;24.63;15.70;;;7.70;99.90;;;;;;4991618;28;20207;-81
2022/12/06 02:06:39;;;;;;;21.15;14.55;;;7.80;99.90;;;;;;4996554;28;20202;-81
2022/12/06 02:09:08;;;;;;;18.95;13.68;;;7.80;99.90;;;;;;4992202;28;20273;-80
2022/12/06 02:11:37;;;;;;;27.15;16.05;;;7.90;99.90;;;;;;4987025;28;20241;-81
2022/12/06 02:14:09;;;;;;;24.95;16.45;;;8.00;99.90;;;;;;4992130;28;20256;-80
2022/12/06 02:16:51;;;;;;;26.02;16.20;;;7.90;99.90;;;;;;4997500;28;20218;-80
2022/12/06 02:19:39;;;;;;;18.58;13.88;;;7.90;99.90;;;;;;4993250;28;20215;-81
2022/12/06 02:22:15;;;;;;;18.45;12.88;;;7.80;99.90;;;;;;4984673;28;20244;-82
2022/12/06 02:25:09;;;;;;;25.45;15.15;;;7.90;99.90;;;;;;4989047;28;20202;-81
2022/12/06 02:28:04;;;;;;;23.20;13.85;;;7.80;99.90;;;;;;4990647;28;20202;-81
2022/12/06 02:30:37;;;;;;;23.42;14.27;;;7.70;99.90;;;;;;4984241;28;20230;-80
2022/12/06 02:33:14;;;;;;;26.55;16.70;;;7.90;99.90;;;;;;4990195;28;20198;-81
2022/12/06 02:35:48;;;;;;;27.40;16.98;;;7.70;99.90;;;;;;4984132;28;20198;-81
2022/12/06 02:38:35;;;;;;;24.38;15.93;;;7.60;99.90;;;;;;4982257;28;20509;-80
2022/12/06 02:41:10;;;;;;;25.35;17.45;;;7.50;99.90;;;;;;4982777;28;20264;-81
2022/12/06 02:43:46;;;;;;;26.80;17.13;;;7.30;99.90;;;;;;4985342;28;20202;-81
2022/12/06 02:46:14;;;;;;;27.38;17.67;;;6.70;99.90;;;;;;4987348;28;20210;-80
2022/12/06 02:48:44;;;;;;;23.13;16.65;;;6.40;99.90;;;;;;4987955;28;20274;-81
2022/12/06 02:51:14;;;;;;;26.77;16.38;;;6.40;99.90;;;;;;4991952;28;20201;-81
2022/12/06 02:53:46;;;;;;;23.95;15.68;;;6.90;99.90;;;;;;4996301;28;20356;-80
2022/12/06 02:56:15;;;;;;;27.50;20.08;;;6.90;99.90;;;;;;4993046;28;20529;-82
2022/12/06 02:58:42;;;;;;;29.35;19.60;;;6.80;99.90;;;;;;4994040;28;20262;-82
2022/12/06 03:01:27;;;;;;;28.55;20.77;;;6.80;99.90;;;;;;4989456;28;20258;-81
2022/12/06 03:04:30;;;;;;;38.25;22.52;;;6.80;99.90;;;;;;4999685;28;20217;-80
2022/12/06 03:07:23;;;;;;;39.05;24.00;;;6.80;99.90;;;;;;4995144;28;20252;-81
2022/12/06 03:10:15;;;;;;;35.10;23.17;;;6.90;99.90;;;;;;4990272;28;20548;-81
2022/12/06 03:13:10;;;;;;;43.60;25.70;;;7.20;99.90;;;;;;4994256;28;20256;-81
2022/12/06 03:15:56;;;;;;;40.38;27.15;;;7.10;99.90;;;;;;4993111;28;20238;-82
2022/12/06 03:18:46;;;;;;;44.38;28.95;;;7.00;99.90;;;;;;4993290;28;20266;-81
2022/12/06 03:21:19;;;;;;;48.67;30.30;;;7.10;99.90;;;;;;4992556;28;20194;-82
2022/12/06 03:23:49;;;;;;;52.72;31.83;;;7.10;99.90;;;;;;4999616;28;20198;-82
2022/12/06 03:26:22;;;;;;;46.30;28.65;;;7.80;99.90;;;;;;4998169;28;20235;-80
2022/12/06 03:28:53;;;;;;;50.25;27.75;;;7.60;99.90;;;;;;4990281;28;20221;-81
2022/12/06 03:31:23;;;;;;;41.35;26.50;;;7.30;99.90;;;;;;4989915;28;20198;-80
2022/12/06 03:34:26;;;;;;;42.90;28.58;;;7.50;99.90;;;;;;4986319;28;20355;-81
2022/12/06 03:36:54;;;;;;;42.17;27.98;;;7.30;99.90;;;;;;4993534;28;20225;-81
2022/12/06 03:40:07;;;;;;;43.60;29.63;;;7.30;99.90;;;;;;4966019;28;20442;-80
2022/12/06 03:42:35;;;;;;;47.35;30.45;;;7.40;99.90;;;;;;4978738;28;20210;-81
2022/12/06 03:45:03;;;;;;;43.42;28.08;;;7.70;99.90;;;;;;4994418;28;20492;-81
2022/12/06 03:47:36;;;;;;;40.90;27.85;;;7.60;99.90;;;;;;4992978;28;20414;-81
2022/12/06 03:50:18;;;;;;;45.60;28.92;;;7.80;99.90;;;;;;4989056;28;20414;-81
2022/12/06 03:52:45;;;;;;;46.22;30.77;;;7.50;99.90;;;;;;4993130;28;20205;-81
2022/12/06 03:55:12;;;;;;;45.30;26.85;;;7.60;99.90;;;;;;4989470;28;20203;-80
2022/12/06 03:57:39;;;;;;;51.08;29.48;;;7.40;99.90;;;;;;4995678;28;20233;-80
2022/12/06 04:00:06;;;;;;;45.03;27.65;;;7.50;99.90;;;;;;4991554;28;20261;-81
2022/12/06 04:02:33;;;;;;;43.58;28.20;;;7.50;99.90;;;;;;4990322;28;20520;-81
2022/12/06 04:05:00;;;;;;;43.97;28.33;;;7.50;99.90;;;;;;4988434;28;20222;-81
2022/12/06 04:07:27;;;;;;;54.88;29.60;;;7.60;99.90;;;;;;5000707;28;20222;-81
2022/12/06 04:10:02;;;;;;;43.63;27.20;;;8.50;99.90;;;;;;4984199;28;20203;-80
2022/12/06 04:15:19;;;;;;;41.92;28.27;;;7.80;99.90;;;;;;4982468;28;20443;-80
2022/12/06 04:23:20;;;;;;;49.03;29.92;;;7.90;99.90;;;;;;4995211;28;20199;-80
2022/12/06 04:25:47;;;;;;;44.33;29.25;;;7.90;99.90;;;;;;4996872;28;20573;-80
2022/12/06 04:39:23;;;;;;;52.17;33.45;;;7.10;99.90;;;;;;5005628;28;20214;-82
2022/12/06 04:44:36;;;;;;;62.38;34.70;;;7.20;99.90;;;;;;4980253;28;20203;-79
2022/12/06 04:47:04;;;;;;;52.20;32.78;;;7.10;99.90;;;;;;4995530;28;20719;-80
2022/12/06 04:49:32;;;;;;;62.65;35.88;;;7.10;99.90;;;;;;4990718;28;20214;-80
2022/12/06 04:51:59;;;;;;;58.88;35.30;;;6.90;99.90;;;;;;4991867;28;20487;-79
2022/12/06 04:54:28;;;;;;;64.20;43.05;;;6.90;99.90;;;;;;4992630;28;20210;-78
2022/12/06 04:56:57;;;;;;;60.78;37.63;;;6.50;99.90;;;;;;4991847;28;20225;-79
2022/12/06 04:59:25;;;;;;;76.15;42.88;;;7.00;99.90;;;;;;5003845;28;20430;-79
2022/12/06 05:01:53;;;;;;;71.85;47.25;;;6.70;99.90;;;;;;4988434;28;20200;-79
2022/12/06 05:04:20;;;;;;;79.32;47.42;;;6.50;99.90;;;;;;4988134;28;20492;-80
2022/12/06 05:06:48;;;;;;;76.88;45.85;;;6.70;99.90;;;;;;4979617;28;20673;-80
2022/12/06 05:09:14;;;;;;;79.78;50.28;;;7.20;99.90;;;;;;4982380;28;20245;-81
2022/12/06 05:11:41;;;;;;;83.05;50.90;;;7.00;99.90;;;;;;4971280;28;20207;-81
2022/12/06 05:14:08;;;;;;;75.90;47.13;;;6.70;99.90;;;;;;4973362;28;20343;-81
2022/12/06 05:16:36;;;;;;;74.18;45.70;;;6.50;99.90;;;;;;4989647;28;20230;-83
2022/12/06 05:19:03;;;;;;;90.07;48.58;;;6.40;99.90;;;;;;4983636;28;20534;-81
2022/12/06 05:21:30;;;;;;;78.30;47.50;;;6.20;99.90;;;;;;4983037;28;20207;-81
2022/12/06 05:23:57;;;;;;;71.85;47.42;;;6.50;99.90;;;;;;4985521;28;20261;-82
2022/12/06 05:26:26;;;;;;;80.30;51.00;;;6.00;99.90;;;;;;4984078;28;20575;-81
2022/12/06 05:28:54;;;;;;;77.95;50.28;;;6.00;99.90;;;;;;4985110;28;20238;-82
2022/12/06 05:31:22;;;;;;;85.82;53.72;;;5.90;99.90;;;;;;4981924;28;20207;-82
2022/12/06 05:33:50;;;;;;;84.45;53.70;;;5.80;99.90;;;;;;4979549;28;20498;-82
2022/12/06 05:36:24;;;;;;;86.38;50.45;;;5.60;99.90;;;;;;4988953;28;20207;-81
2022/12/06 05:38:53;;;;;;;91.75;51.55;;;5.60;99.90;;;;;;4976542;28;20358;-80
2022/12/06 05:41:21;;;;;;;72.15;45.10;;;5.60;99.90;;;;;;4984341;28;20554;-82
2022/12/06 05:43:48;;;;;;;73.68;46.03;;;5.50;99.90;;;;;;4987253;28;20215;-81
2022/12/06 05:46:18;;;;;;;74.40;48.42;;;5.40;99.90;;;;;;4990023;28;20215;-81
2022/12/06 05:48:45;;;;;;;76.07;46.55;;;5.50;99.90;;;;;;4985409;28;20232;-82
2022/12/06 05:51:13;;;;;;;85.38;47.20;;;5.50;99.90;;;;;;4983239;28;20211;-81
2022/12/06 05:53:40;;;;;;;81.32;47.75;;;5.70;99.90;;;;;;4992794;28;20387;-81
2022/12/06 05:56:10;;;;;;;74.07;48.42;;;5.80;99.90;;;;;;4975769;28;20426;-81
2022/12/06 05:58:38;;;;;;;81.88;45.78;;;5.80;99.90;;;;;;4990766;28;20253;-84
2022/12/06 06:01:07;;;;;;;70.80;41.38;;;5.90;99.90;;;;;;4981475;28;20372;-81
2022/12/06 06:03:34;;;;;;;78.55;44.55;;;5.80;99.90;;;;;;4988635;28;20203;-82
2022/12/06 06:06:02;;;;;;;82.25;44.00;;;5.80;99.90;;;;;;4995063;28;20226;-82
2022/12/06 06:08:30;;;;;;;66.75;40.75;;;5.90;99.90;;;;;;4988054;28;20211;-83
2022/12/06 06:10:59;;;;;;;72.20;42.60;;;5.80;99.90;;;;;;4977170;28;20231;-82
2022/12/06 06:13:26;;;;;;;71.30;38.63;;;5.70;99.90;;;;;;4990797;28;20230;-83
2022/12/06 06:15:54;;;;;;;64.13;37.63;;;5.80;99.90;;;;;;4989225;28;20201;-82
2022/12/06 06:18:21;;;;;;;58.55;34.88;;;5.70;99.90;;;;;;4992602;28;20229;-84
2022/12/06 06:20:53;;;;;;;44.00;25.40;;;5.60;99.90;;;;;;4976122;28;20254;-84
2022/12/06 06:23:21;;;;;;;42.03;26.35;;;5.30;99.90;;;;;;4998117;28;20217;-84
2022/12/06 06:25:47;;;;;;;40.10;28.27;;;5.30;99.90;;;;;;4992512;28;20206;-84
2022/12/06 06:28:16;;;;;;;27.33;21.00;;;5.40;99.90;;;;;;4988585;28;20261;-84
2022/12/06 06:30:43;;;;;;;30.75;17.83;;;5.30;99.90;;;;;;4992446;28;20235;-88
2022/12/06 06:33:11;;;;;;;31.40;18.48;;;5.00;99.90;;;;;;4990903;28;20649;-83
2022/12/06 06:35:38;;;;;;;22.45;13.05;;;4.90;99.90;;;;;;4990489;28;20222;-83
2022/12/06 06:38:05;;;;;;;18.10;14.00;;;4.80;99.90;;;;;;4992178;28;20570;-84
2022/12/06 06:40:32;;;;;;;18.27;14.18;;;4.80;99.90;;;;;;4984588;28;20203;-84
2022/12/06 06:43:16;;;;;;;22.92;14.32;;;4.90;99.90;;;;;;4984305;28;20229;-84
2022/12/06 06:45:55;;;;;;;14.40;11.13;;;4.80;99.90;;;;;;4995939;28;20225;-85
2022/12/06 06:48:23;;;;;;;15.95;12.70;;;5.00;99.90;;;;;;4991468;28;20198;-85
2022/12/06 06:50:50;;;;;;;21.27;13.50;;;5.10;99.90;;;;;;4984740;28;20237;-85
2022/12/06 06:53:23;;;;;;;16.70;12.70;;;4.90;99.90;;;;;;4995885;28;20207;-85
2022/12/06 06:55:53;;;;;;;19.58;14.77;;;4.80;99.90;;;;;;4995717;28;20232;-86
2022/12/06 06:58:20;;;;;;;20.02;13.88;;;4.70;99.90;;;;;;4993956;28;20223;-86
2022/12/06 07:00:54;;;;;;;22.38;13.52;;;5.30;99.90;;;;;;4984579;28;20195;-86
2022/12/06 07:03:22;;;;;;;16.67;13.48;;;4.80;99.90;;;;;;4985089;28;20202;-86
2022/12/06 07:06:09;;;;;;;13.75;11.48;;;5.30;99.90;;;;;;4973447;28;20483;-85
2022/12/06 07:08:39;;;;;;;15.25;11.13;;;4.60;99.90;;;;;;4990740;28;20235;-84
2022/12/06 07:11:09;;;;;;;21.52;14.63;;;5.10;99.90;;;;;;4990966;28;20203;-85
2022/12/06 07:13:38;;;;;;;17.20;12.55;;;4.50;99.90;;;;;;4985753;28;20258;-84
2022/12/06 07:16:11;;;;;;;18.50;13.57;;;4.50;99.90;;;;;;4987433;28;20202;-85
2022/12/06 07:18:38;;;;;;;18.73;12.50;;;4.40;99.90;;;;;;4986188;28;20215;-84
2022/12/06 07:21:07;;;;;;;17.33;13.27;;;4.40;99.90;;;;;;4987694;28;20206;-86
2022/12/06 07:23:35;;;;;;;20.73;14.75;;;4.40;99.90;;;;;;4989450;28;20206;-85
2022/12/06 07:26:22;;;;;;;22.35;13.63;;;4.60;99.90;;;;;;4991673;28;20202;-85
2022/12/06 07:28:50;;;;;;;30.83;14.80;;;4.40;99.90;;;;;;4996941;28;20217;-87
2022/12/06 07:31:23;;;;;;;22.95;13.20;;;4.80;99.90;;;;;;4996725;28;20250;-87
2022/12/06 07:33:55;;;;;;;22.42;14.68;;;5.10;99.90;;;;;;4993234;28;20195;-89
2022/12/06 07:36:25;;;;;;;19.55;15.43;;;5.00;99.90;;;;;;4987222;28;20198;-83
2022/12/06 07:38:54;;;;;;;18.70;14.70;;;4.70;99.90;;;;;;4987092;28;20264;-83
2022/12/06 07:46:58;;;;;;;19.63;14.73;;;4.40;99.90;;;;;;4986222;28;20194;-83
2022/12/06 07:49:26;;;;;;;23.75;15.93;;;4.50;99.90;;;;;;4997524;28;20222;-84
2022/12/06 07:51:54;;;;;;;27.35;18.70;;;4.10;99.90;;;;;;4996869;28;20230;-86
2022/12/06 07:54:21;;;;;;;29.80;17.95;;;4.20;99.90;;;;;;5006616;28;20237;-83
2022/12/06 07:56:51;;;;;;;23.42;15.15;;;4.90;99.90;;;;;;4991970;28;20207;-83
2022/12/06 07:59:18;;;;;;;26.38;17.48;;;4.60;99.90;;;;;;4989540;28;20227;-85
2022/12/06 08:01:45;;;;;;;24.63;17.42;;;4.60;99.90;;;;;;4995216;28;20270;-85
2022/12/06 08:04:12;;;;;;;23.30;14.25;;;4.60;99.90;;;;;;4987917;28;20253;-85
2022/12/06 08:06:40;;;;;;;19.48;13.80;;;4.50;99.90;;;;;;4996682;28;20211;-85
2022/12/06 08:09:07;;;;;;;21.13;13.45;;;5.20;99.90;;;;;;4998631;28;20210;-85
2022/12/06 08:11:34;;;;;;;18.80;14.05;;;4.70;99.90;;;;;;4989563;28;20209;-84
2022/12/06 08:14:03;;;;;;;21.95;15.38;;;4.90;99.90;;;;;;4987080;28;20387;-84
2022/12/06 08:16:31;;;;;;;19.67;14.65;;;4.80;99.90;;;;;;4994304;28;20209;-85
2022/12/06 08:18:58;;;;;;;22.05;16.00;;;4.50;99.90;;;;;;4997125;28;20699;-84
2022/12/06 08:21:25;;;;;;;16.45;13.80;;;4.70;99.90;;;;;;4989860;28;20253;-88
2022/12/06 08:23:53;;;;;;;21.42;16.15;;;4.70;99.90;;;;;;4990049;28;20536;-83
2022/12/06 08:26:20;;;;;;;28.42;18.20;;;4.40;99.90;;;;;;4994809;28;20278;-84
2022/12/06 08:28:47;;;;;;;22.20;18.00;;;4.40;99.90;;;;;;4996446;28;20206;-85
2022/12/06 08:31:20;;;;;;;30.33;17.23;;;5.70;99.90;;;;;;4993262;28;20430;-84
2022/12/06 08:33:48;;;;;;;31.27;20.38;;;4.60;99.90;;;;;;4986536;28;20197;-84
2022/12/06 08:36:20;;;;;;;24.80;16.33;;;4.70;99.90;;;;;;4993895;28;20263;-83
2022/12/06 08:38:49;;;;;;;20.77;16.55;;;4.50;99.90;;;;;;4990569;28;20279;-84
2022/12/06 08:44:03;;;;;;;26.60;19.63;;;4.50;99.90;;;;;;4987990;28;20293;-84
2022/12/06 08:46:32;;;;;;;22.95;15.60;;;4.30;99.90;;;;;;4991707;28;20211;-84
2022/12/06 08:48:59;;;;;;;22.15;17.50;;;4.40;99.90;;;;;;4992998;28;20237;-83
2022/12/06 08:51:27;;;;;;;25.95;16.08;;;4.30;99.90;;;;;;4994698;28;20199;-84
2022/12/06 08:53:57;;;;;;;18.58;14.90;;;4.40;99.90;;;;;;4995791;28;20278;-83
2022/12/06 08:56:29;;;;;;;19.23;15.63;;;4.40;99.90;;;;;;4985914;28;20242;-83
2022/12/06 08:58:56;;;;;;;23.15;16.52;;;4.50;99.90;;;;;;4989414;28;20226;-84
2022/12/06 09:01:28;;;;;;;18.35;15.27;;;4.40;99.90;;;;;;4989555;28;20292;-85
2022/12/06 09:04:04;;;;;;;17.50;14.38;;;4.40;99.90;;;;;;4996250;28;20198;-83
2022/12/06 09:06:31;;;;;;;17.55;13.38;;;4.40;99.90;;;;;;5005814;28;20209;-83
2022/12/06 09:08:59;;;;;;;16.63;14.02;;;4.70;99.90;;;;;;4996159;28;20248;-84
2022/12/06 09:11:26;;;;;;;18.33;13.10;;;4.40;99.90;;;;;;4996947;28;20224;-83
2022/12/06 09:13:54;;;;;;;18.00;11.70;;;4.50;99.90;;;;;;4986322;28;20203;-87
2022/12/06 09:16:22;;;;;;;13.90;10.10;;;4.40;99.90;;;;;;4997461;28;20261;-83
2022/12/06 09:18:51;;;;;;;12.88;9.77;;;4.20;99.90;;;;;;4988628;28;20616;-82
2022/12/06 09:21:21;;;;;;;13.52;10.05;;;4.20;99.90;;;;;;4989414;28;20257;-83
2022/12/06 09:23:48;;;;;;;15.98;10.40;;;4.30;99.90;;;;;;4979766;28;20203;-82
2022/12/06 09:26:18;;;;;;;11.73;10.13;;;4.40;99.90;;;;;;4985346;28;20207;-83
2022/12/06 09:28:50;;;;;;;14.68;11.48;;;4.60;99.90;;;;;;4987463;28;20206;-82
2022/12/06 09:31:18;;;;;;;11.82;8.60;;;4.70;99.90;;;;;;4986914;28;20257;-82
2022/12/06 09:33:45;;;;;;;10.13;8.20;;;4.70;99.90;;;;;;4995053;28;20238;-84
2022/12/06 09:36:23;;;;;;;11.40;8.38;;;4.70;99.90;;;;;;4991789;28;20537;-83
2022/12/06 09:39:10;;;;;;;12.70;11.10;;;4.70;99.90;;;;;;4981603;28;20225;-82
2022/12/06 09:42:05;;;;;;;11.07;9.02;;;4.70;99.90;;;;;;4992344;28;20529;-81
2022/12/06 09:44:44;;;;;;;14.57;10.57;;;4.70;99.90;;;;;;4986141;28;20199;-83
2022/12/06 09:47:48;;;;;;;12.45;10.95;;;4.80;99.90;;;;;;4990904;28;20202;-82
2022/12/06 09:50:20;;;;;;;17.90;14.48;;;4.70;99.90;;;;;;5001745;28;20175;-84
2022/12/06 09:53:17;;;;;;;11.85;10.32;;;4.70;99.90;;;;;;4999301;28;20194;-83
2022/12/06 09:55:59;;;;;;;13.20;10.75;;;4.60;99.90;;;;;;4997504;28;20226;-82
2022/12/06 09:58:49;;;;;;;12.73;11.50;;;4.70;99.90;;;;;;4995203;28;20230;-86
2022/12/06 10:01:57;;;;;;;12.65;9.95;;;4.70;99.90;;;;;;4985949;28;20368;-84
2022/12/06 10:04:53;;;;;;;13.63;10.88;;;4.70;99.90;;;;;;4985876;28;20203;-81
2022/12/06 10:07:41;;;;;;;12.35;9.85;;;4.70;99.90;;;;;;4978735;28;20211;-84
2022/12/06 10:10:30;;;;;;;12.90;9.50;;;4.70;99.90;;;;;;4990452;28;20229;-82
2022/12/06 10:13:21;;;;;;;15.82;12.60;;;4.60;99.90;;;;;;4973761;28;20202;-83
2022/12/06 10:16:15;;;;;;;15.32;12.55;;;4.60;99.90;;;;;;4974991;28;20298;-84
2022/12/06 10:19:07;;;;;;;14.65;11.18;;;4.80;99.90;;;;;;4982518;28;20231;-83
2022/12/06 10:21:56;;;;;;;18.27;12.52;;;4.70;99.90;;;;;;4985537;28;20603;-84
2022/12/06 10:24:44;;;;;;;16.27;10.57;;;4.70;99.90;;;;;;4990014;28;20224;-83
2022/12/06 10:27:21;;;;;;;12.15;10.40;;;4.60;99.90;;;;;;4987743;28;20264;-84
2022/12/06 10:29:57;;;;;;;12.38;9.82;;;4.60;99.90;;;;;;4980654;28;20371;-81
2022/12/06 10:32:47;;;;;;;10.95;9.40;;;4.60;99.90;;;;;;4990513;28;20209;-83
2022/12/06 10:35:40;;;;;;;13.13;10.40;;;4.50;99.90;;;;;;4985235;28;20214;-81
2022/12/06 10:38:22;;;;;;;12.32;9.88;;;4.70;99.90;;;;;;4965920;28;20694;-82
2022/12/06 10:40:49;;;;;;;12.20;10.63;;;4.50;99.90;;;;;;4987097;28;20510;-82
2022/12/06 10:43:23;;;;;;;14.55;12.20;;;4.50;99.90;;;;;;4987506;28;20289;-85
2022/12/06 10:49:11;;;;;;;12.43;10.23;;;4.50;99.90;;;;;;4974740;28;20258;-86
2022/12/06 10:52:04;;;;;;;13.15;10.05;;;4.40;99.90;;;;;;4971472;28;20218;-81
2022/12/06 10:54:48;;;;;;;15.60;13.05;;;4.30;99.90;;;;;;4983999;28;20205;-82
2022/12/06 10:57:27;;;;;;;12.63;11.32;;;4.30;99.90;;;;;;4993761;28;20225;-82
2022/12/06 11:00:04;;;;;;;11.55;10.35;;;4.30;99.90;;;;;;4981605;28;20230;-82
2022/12/06 11:03:19;;;;;;;11.90;9.65;;;4.20;99.90;;;;;;4995727;28;20214;-82
2022/12/06 11:05:48;;;;;;;13.63;11.35;;;4.20;99.90;;;;;;4968891;28;20715;-82
2022/12/06 11:08:24;;;;;;;10.63;9.10;;;4.40;99.90;;;;;;4993083;28;20206;-81
2022/12/06 11:10:55;;;;;;;12.48;10.98;;;4.20;99.90;;;;;;4982773;28;20710;-81
2022/12/06 11:13:55;;;;;;;13.32;10.40;;;4.40;99.90;;;;;;4982749;28;20199;-88
2022/12/06 11:16:57;;;;;;;14.85;11.65;;;4.30;99.90;;;;;;4992465;28;20510;-83
2022/12/06 11:19:48;;;;;;;14.90;11.27;;;4.20;99.90;;;;;;4974942;28;20229;-83
2022/12/06 11:22:38;;;;;;;14.48;11.75;;;4.20;99.90;;;;;;4975128;28;20241;-87
2022/12/06 11:25:24;;;;;;;13.48;12.20;;;4.30;99.90;;;;;;4991923;28;20232;-81
2022/12/06 11:27:59;;;;;;;10.27;9.38;;;4.30;99.90;;;;;;4994425;28;20234;-83
2022/12/06 11:30:29;;;;;;;10.35;9.15;;;4.30;99.90;;;;;;4996076;28;20210;-84
2022/12/06 11:33:00;;;;;;;10.10;8.95;;;4.60;99.90;;;;;;4997179;28;20245;-83
2022/12/06 11:35:28;;;;;;;10.80;9.70;;;4.40;99.90;;;;;;4988712;28;20214;-87
2022/12/06 11:38:01;;;;;;;11.48;8.23;;;4.30;99.90;;;;;;4986780;28;20256;-83
2022/12/06 11:40:36;;;;;;;10.35;8.30;;;4.40;99.90;;;;;;4993243;28;20230;-83
2022/12/06 11:43:08;;;;;;;10.50;8.98;;;4.70;99.90;;;;;;4995815;28;20273;-82
2022/12/06 11:45:40;;;;;;;12.15;9.80;;;4.50;99.90;;;;;;4992459;28;20210;-83
2022/12/06 11:48:21;;;;;;;11.02;9.02;;;4.40;99.90;;;;;;5009668;28;20226;-84
2022/12/06 11:50:51;;;;;;;8.48;7.35;;;4.50;99.90;;;;;;4984583;28;20211;-84
2022/12/06 11:53:27;;;;;;;11.73;8.13;;;4.70;99.90;;;;;;5001043;28;20202;-83
2022/12/06 11:55:59;;;;;;;8.70;7.90;;;4.70;99.90;;;;;;4990836;28;20202;-84
2022/12/06 11:58:39;;;;;;;11.80;7.50;;;4.50;99.90;;;;;;5006960;28;20211;-83
2022/12/06 12:01:09;;;;;;;11.35;10.13;;;4.40;99.90;;;;;;5006329;28;20186;-84
2022/12/06 12:03:40;;;;;;;9.88;8.48;;;4.60;99.90;;;;;;5008485;28;20210;-84
2022/12/06 12:06:25;;;;;;;9.75;7.68;;;4.60;99.90;;;;;;4994674;28;20209;-84
2022/12/06 12:08:59;;;;;;;8.98;7.15;;;4.70;99.90;;;;;;4998169;28;20234;-84
2022/12/06 12:11:31;;;;;;;8.07;7.07;;;4.70;99.90;;;;;;4995545;28;20195;-82
2022/12/06 12:14:02;;;;;;;9.02;7.53;;;4.70;99.90;;;;;;4995493;28;20246;-82
2022/12/06 12:16:34;;;;;;;7.78;6.57;;;4.80;99.90;;;;;;4995653;28;20199;-82
2022/12/06 12:19:22;;;;;;;8.48;7.35;;;4.90;99.90;;;;;;4981862;28;20210;-83
2022/12/06 12:21:50;;;;;;;8.18;7.38;;;4.90;99.90;;;;;;4991158;28;20195;-83
2022/12/06 12:24:42;;;;;;;12.65;7.93;;;4.90;99.90;;;;;;4980737;28;20545;-83
2022/12/06 12:27:38;;;;;;;8.52;7.45;;;4.80;99.90;;;;;;4977768;28;20238;-81
2022/12/06 12:30:20;;;;;;;11.90;8.52;;;4.80;99.90;;;;;;4980010;28;20194;-84
2022/12/06 12:32:50;;;;;;;8.70;7.90;;;4.90;99.90;;;;;;4971046;28;20476;-82
2022/12/06 12:35:20;;;;;;;8.80;7.78;;;4.90;99.90;;;;;;4978575;28;20258;-83
2022/12/06 12:37:56;;;;;;;8.48;7.15;;;4.80;99.90;;;;;;4981453;28;20515;-83
2022/12/06 12:40:32;;;;;;;10.60;6.55;;;4.80;99.90;;;;;;4982908;28;20230;-83
2022/12/06 12:43:04;;;;;;;8.75;7.68;;;4.70;99.90;;;;;;4983406;28;20199;-83
2022/12/06 12:45:33;;;;;;;8.57;7.15;;;4.80;99.90;;;;;;4981840;28;20261;-84
2022/12/06 12:48:20;;;;;;;10.02;8.88;;;4.70;99.90;;;;;;4979783;28;20251;-86
2022/12/06 12:50:57;;;;;;;8.02;7.32;;;4.50;99.90;;;;;;4980051;28;20211;-83
2022/12/06 12:53:35;;;;;;;8.85;7.95;;;4.50;99.90;;;;;;4986293;28;20202;-82
2022/12/06 12:56:14;;;;;;;9.75;8.20;;;4.50;99.90;;;;;;5004611;28;20233;-84
2022/12/06 12:58:42;;;;;;;9.85;8.75;;;4.50;99.90;;;;;;4978998;28;20844;-83
2022/12/06 13:01:36;;;;;;;9.20;8.30;;;4.00;99.90;;;;;;4981035;28;20215;-83
2022/12/06 13:04:16;;;;;;;9.77;8.50;;;4.60;99.90;;;;;;4988424;28;20206;-83
2022/12/06 13:06:51;;;;;;;10.93;9.82;;;4.70;99.90;;;;;;4996532;28;20494;-84
2022/12/06 13:09:31;;;;;;;10.55;8.60;;;4.70;99.90;;;;;;4999825;28;20209;-84
2022/12/06 13:12:06;;;;;;;9.20;8.30;;;4.50;99.90;;;;;;4980382;28;20223;-84
2022/12/06 13:14:36;;;;;;;9.88;7.88;;;4.50;99.90;;;;;;4994482;28;20210;-83
2022/12/06 13:17:07;;;;;;;11.00;9.85;;;4.50;99.90;;;;;;4986938;28;20205;-85
2022/12/06 13:19:39;;;;;;;9.65;8.50;;;4.70;99.90;;;;;;4984415;28;20365;-85
2022/12/06 13:22:13;;;;;;;11.00;8.90;;;4.70;99.90;;;;;;4978855;28;20274;-83
2022/12/06 13:24:43;;;;;;;9.90;8.85;;;4.80;99.90;;;;;;4982227;28;20375;-83
2022/12/06 13:27:16;;;;;;;10.23;8.60;;;5.00;99.90;;;;;;4976241;28;20231;-83
2022/12/06 13:29:57;;;;;;;13.55;10.95;;;4.70;99.90;;;;;;4981000;28;20480;-83
2022/12/06 13:32:40;;;;;;;13.82;11.40;;;4.70;99.90;;;;;;4981279;28;20199;-83
2022/12/06 13:35:33;;;;;;;11.43;10.32;;;4.80;99.90;;;;;;4984985;28;20210;-84
2022/12/06 13:38:17;;;;;;;14.02;11.15;;;4.80;99.90;;;;;;4976081;28;20207;-83
2022/12/06 13:40:52;;;;;;;12.48;10.43;;;4.80;99.90;;;;;;4982570;28;20223;-84
2022/12/06 13:43:25;;;;;;;11.82;9.18;;;5.10;99.90;;;;;;4981595;28;20207;-83
2022/12/06 13:46:14;;;;;;;13.50;12.15;;;4.70;99.90;;;;;;4979801;28;20277;-82
2022/12/06 13:48:55;;;;;;;16.40;11.13;;;4.50;99.90;;;;;;4976584;28;20208;-84